sensor_id;sensor_type;location;lat;lon;timestamp;temperature;humidity
21590;DHT22;10957;50.968;6.828;2022-07-25T00:04:21;20.80;54.60
21590;DHT22;10957;50.968;6.828;2022-07-25T00:09:22;20.70;56.90
21590;DHT22;10957;50.968;6.828;2022-07-25T00:14:23;20.60;66.00
21590;DHT22;10957;50.968;6.828;2022-07-25T00:19:23;20.60;58.90
21590;DHT22;10957;50.968;6.828;2022-07-25T00:24:24;20.70;54.50
21590;DHT22;10957;50.968;6.828;2022-07-25T00:29:25;20.70;59.30
21590;DHT22;10957;50.968;6.828;2022-07-25T00:34:26;20.50;61.90
21590;DHT22;10957;50.968;6.828;2022-07-25T00:39:26;20.40;69.30
21590;DHT22;10957;50.968;6.828;2022-07-25T00:44:30;20.30;68.90
21590;DHT22;10957;50.968;6.828;2022-07-25T00:49:31;20.30;75.40
21590;DHT22;10957;50.968;6.828;2022-07-25T00:54:32;20.20;76.30
21590;DHT22;10957;50.968;6.828;2022-07-25T00:59:32;20.20;77.20
21590;DHT22;10957;50.968;6.828;2022-07-25T01:04:33;20.20;77.30
21590;DHT22;10957;50.968;6.828;2022-07-25T01:09:34;20.10;75.20
21590;DHT22;10957;50.968;6.828;2022-07-25T01:14:35;20.00;79.40
21590;DHT22;10957;50.968;6.828;2022-07-25T01:19:36;20.00;82.40
21590;DHT22;10957;50.968;6.828;2022-07-25T01:24:38;19.90;84.90
21590;DHT22;10957;50.968;6.828;2022-07-25T01:29:38;19.80;80.50
21590;DHT22;10957;50.968;6.828;2022-07-25T01:34:39;19.80;82.90
21590;DHT22;10957;50.968;6.828;2022-07-25T01:39:40;19.70;77.50
21590;DHT22;10957;50.968;6.828;2022-07-25T01:44:40;19.60;76.40
21590;DHT22;10957;50.968;6.828;2022-07-25T01:49:42;19.60;71.60
21590;DHT22;10957;50.968;6.828;2022-07-25T01:54:43;19.60;74.10
21590;DHT22;10957;50.968;6.828;2022-07-25T01:59:44;19.60;67.00
21590;DHT22;10957;50.968;6.828;2022-07-25T02:04:45;19.60;59.60
21590;DHT22;10957;50.968;6.828;2022-07-25T02:09:45;19.50;55.40
21590;DHT22;10957;50.968;6.828;2022-07-25T02:14:46;19.40;53.50
21590;DHT22;10957;50.968;6.828;2022-07-25T02:19:47;19.40;56.50
21590;DHT22;10957;50.968;6.828;2022-07-25T02:24:48;19.40;53.50
21590;DHT22;10957;50.968;6.828;2022-07-25T02:29:48;19.30;60.30
21590;DHT22;10957;50.968;6.828;2022-07-25T02:34:49;19.20;63.20
21590;DHT22;10957;50.968;6.828;2022-07-25T02:39:50;19.20;64.10
21590;DHT22;10957;50.968;6.828;2022-07-25T02:44:50;19.20;58.20
21590;DHT22;10957;50.968;6.828;2022-07-25T02:49:51;19.20;61.30
21590;DHT22;10957;50.968;6.828;2022-07-25T02:54:52;19.20;58.90
21590;DHT22;10957;50.968;6.828;2022-07-25T02:59:53;19.20;61.20
21590;DHT22;10957;50.968;6.828;2022-07-25T03:04:53;19.10;58.70
21590;DHT22;10957;50.968;6.828;2022-07-25T03:09:54;19.10;61.00
21590;DHT22;10957;50.968;6.828;2022-07-25T03:14:55;19.00;63.60
21590;DHT22;10957;50.968;6.828;2022-07-25T03:19:56;19.10;57.80
21590;DHT22;10957;50.968;6.828;2022-07-25T03:24:57;19.10;53.80
21590;DHT22;10957;50.968;6.828;2022-07-25T03:29:57;19.20;49.10
21590;DHT22;10957;50.968;6.828;2022-07-25T03:34:58;19.20;49.20
21590;DHT22;10957;50.968;6.828;2022-07-25T03:39:59;19.10;49.20
21590;DHT22;10957;50.968;6.828;2022-07-25T03:45:00;19.00;51.80
21590;DHT22;10957;50.968;6.828;2022-07-25T03:50:00;19.00;47.30
21590;DHT22;10957;50.968;6.828;2022-07-25T03:55:02;19.00;53.00
21590;DHT22;10957;50.968;6.828;2022-07-25T04:00:04;19.00;54.90
21590;DHT22;10957;50.968;6.828;2022-07-25T04:05:07;18.90;58.10
21590;DHT22;10957;50.968;6.828;2022-07-25T04:10:09;18.80;62.10
21590;DHT22;10957;50.968;6.828;2022-07-25T04:15:11;18.90;59.40
21590;DHT22;10957;50.968;6.828;2022-07-25T04:20:12;18.90;59.40
21590;DHT22;10957;50.968;6.828;2022-07-25T04:25:13;19.00;60.50
21590;DHT22;10957;50.968;6.828;2022-07-25T04:30:13;19.10;64.60
21590;DHT22;10957;50.968;6.828;2022-07-25T04:35:15;19.20;62.80
21590;DHT22;10957;50.968;6.828;2022-07-25T04:40:15;19.30;66.70
21590;DHT22;10957;50.968;6.828;2022-07-25T04:45:16;19.40;62.00
21590;DHT22;10957;50.968;6.828;2022-07-25T04:50:17;19.60;63.60
21590;DHT22;10957;50.968;6.828;2022-07-25T04:55:18;19.80;58.40
21590;DHT22;10957;50.968;6.828;2022-07-25T05:00:19;20.00;58.20
21590;DHT22;10957;50.968;6.828;2022-07-25T05:05:20;20.20;51.00
21590;DHT22;10957;50.968;6.828;2022-07-25T05:10:21;20.30;49.90
21590;DHT22;10957;50.968;6.828;2022-07-25T05:15:22;20.50;48.20
21590;DHT22;10957;50.968;6.828;2022-07-25T05:20:23;20.70;46.80
21590;DHT22;10957;50.968;6.828;2022-07-25T05:25:24;20.80;50.50
21590;DHT22;10957;50.968;6.828;2022-07-25T05:30:25;20.90;38.50
21590;DHT22;10957;50.968;6.828;2022-07-25T05:35:25;21.00;40.30
21590;DHT22;10957;50.968;6.828;2022-07-25T05:40:26;21.00;39.40
21590;DHT22;10957;50.968;6.828;2022-07-25T05:45:27;20.90;46.20
21590;DHT22;10957;50.968;6.828;2022-07-25T05:50:28;21.00;41.20
21590;DHT22;10957;50.968;6.828;2022-07-25T05:55:29;21.20;42.30
21590;DHT22;10957;50.968;6.828;2022-07-25T06:00:30;21.40;39.20
21590;DHT22;10957;50.968;6.828;2022-07-25T06:05:31;21.70;26.50
21590;DHT22;10957;50.968;6.828;2022-07-25T06:10:32;21.90;23.80
21590;DHT22;10957;50.968;6.828;2022-07-25T06:15:32;22.30;21.80
21590;DHT22;10957;50.968;6.828;2022-07-25T06:20:33;22.70;12.90
21590;DHT22;10957;50.968;6.828;2022-07-25T06:25:34;23.10;20.50
21590;DHT22;10957;50.968;6.828;2022-07-25T06:30:35;23.30;12.50
21590;DHT22;10957;50.968;6.828;2022-07-25T06:35:36;23.90;13.00
21590;DHT22;10957;50.968;6.828;2022-07-25T06:40:37;24.50;5.40
21590;DHT22;10957;50.968;6.828;2022-07-25T06:45:37;24.80;6.00
21590;DHT22;10957;50.968;6.828;2022-07-25T06:50:38;24.80;6.00
21590;DHT22;10957;50.968;6.828;2022-07-25T06:55:39;25.00;4.60
21590;DHT22;10957;50.968;6.828;2022-07-25T07:00:40;25.20;3.10
21590;DHT22;10957;50.968;6.828;2022-07-25T07:05:41;25.40;1.00
21590;DHT22;10957;50.968;6.828;2022-07-25T07:10:42;26.10;3.60
21590;DHT22;10957;50.968;6.828;2022-07-25T07:15:45;25.90;2.20
21590;DHT22;10957;50.968;6.828;2022-07-25T07:20:47;26.30;3.50
21590;DHT22;10957;50.968;6.828;2022-07-25T07:25:48;26.80;1.00
21590;DHT22;10957;50.968;6.828;2022-07-25T07:30:48;27.50;1.00
21590;DHT22;10957;50.968;6.828;2022-07-25T07:35:49;27.40;1.00
21590;DHT22;10957;50.968;6.828;2022-07-25T07:40:51;27.20;1.00
21590;DHT22;10957;50.968;6.828;2022-07-25T07:45:52;27.90;1.00
21590;DHT22;10957;50.968;6.828;2022-07-25T07:50:56;27.70;1.00
21590;DHT22;10957;50.968;6.828;2022-07-25T07:55:56;27.60;1.00
21590;DHT22;10957;50.968;6.828;2022-07-25T08:00:57;27.80;1.00
21590;DHT22;10957;50.968;6.828;2022-07-25T08:05:58;28.00;1.00
21590;DHT22;10957;50.968;6.828;2022-07-25T08:10:59;28.10;1.00
21590;DHT22;10957;50.968;6.828;2022-07-25T08:16:01;27.80;1.00
21590;DHT22;10957;50.968;6.828;2022-07-25T08:21:03;27.70;1.00
21590;DHT22;10957;50.968;6.828;2022-07-25T08:26:05;27.70;1.00
21590;DHT22;10957;50.968;6.828;2022-07-25T08:31:07;27.40;1.00
21590;DHT22;10957;50.968;6.828;2022-07-25T08:36:08;27.40;1.00
21590;DHT22;10957;50.968;6.828;2022-07-25T08:41:10;27.30;1.00
21590;DHT22;10957;50.968;6.828;2022-07-25T08:46:11;27.20;1.00
21590;DHT22;10957;50.968;6.828;2022-07-25T08:51:13;27.30;1.00
21590;DHT22;10957;50.968;6.828;2022-07-25T08:56:14;27.20;1.00
21590;DHT22;10957;50.968;6.828;2022-07-25T09:01:15;27.40;1.00
21590;DHT22;10957;50.968;6.828;2022-07-25T09:06:20;28.00;1.00
21590;DHT22;10957;50.968;6.828;2022-07-25T09:11:36;28.10;1.00
21590;DHT22;10957;50.968;6.828;2022-07-25T09:16:39;28.30;1.00
21590;DHT22;10957;50.968;6.828;2022-07-25T09:21:43;28.00;1.00
21590;DHT22;10957;50.968;6.828;2022-07-25T09:26:46;28.40;1.00
21590;DHT22;10957;50.968;6.828;2022-07-25T09:31:47;28.20;1.00
21590;DHT22;10957;50.968;6.828;2022-07-25T09:36:52;28.80;1.00
21590;DHT22;10957;50.968;6.828;2022-07-25T09:41:53;27.40;1.00
21590;DHT22;10957;50.968;6.828;2022-07-25T09:46:55;27.30;1.00
21590;DHT22;10957;50.968;6.828;2022-07-25T09:51:56;26.90;1.00
21590;DHT22;10957;50.968;6.828;2022-07-25T09:56:57;26.70;1.00
21590;DHT22;10957;50.968;6.828;2022-07-25T10:28:06;25.10;1.00
21590;DHT22;10957;50.968;6.828;2022-07-25T10:33:18;24.80;1.00
21590;DHT22;10957;50.968;6.828;2022-07-25T10:38:27;25.00;1.00
21590;DHT22;10957;50.968;6.828;2022-07-25T10:43:28;25.50;1.00
21590;DHT22;10957;50.968;6.828;2022-07-25T10:48:30;25.30;1.00
21590;DHT22;10957;50.968;6.828;2022-07-25T10:58:54;25.70;1.00
21590;DHT22;10957;50.968;6.828;2022-07-25T11:03:59;26.10;1.00
21590;DHT22;10957;50.968;6.828;2022-07-25T11:09:00;26.70;1.00
21590;DHT22;10957;50.968;6.828;2022-07-25T11:14:01;26.00;1.00
21590;DHT22;10957;50.968;6.828;2022-07-25T11:19:02;26.00;1.00
21590;DHT22;10957;50.968;6.828;2022-07-25T11:24:03;26.30;1.00
21590;DHT22;10957;50.968;6.828;2022-07-25T11:29:04;26.50;1.00
21590;DHT22;10957;50.968;6.828;2022-07-25T11:34:05;26.40;1.00
21590;DHT22;10957;50.968;6.828;2022-07-25T11:39:05;26.10;1.00
21590;DHT22;10957;50.968;6.828;2022-07-25T11:44:06;26.20;1.00
21590;DHT22;10957;50.968;6.828;2022-07-25T11:49:07;26.30;1.00
21590;DHT22;10957;50.968;6.828;2022-07-25T11:54:09;26.80;1.00
21590;DHT22;10957;50.968;6.828;2022-07-25T11:59:10;27.00;1.00
21590;DHT22;10957;50.968;6.828;2022-07-25T12:04:16;27.20;1.00
21590;DHT22;10957;50.968;6.828;2022-07-25T12:09:19;27.30;1.00
21590;DHT22;10957;50.968;6.828;2022-07-25T12:14:20;27.70;1.00
21590;DHT22;10957;50.968;6.828;2022-07-25T12:19:21;27.70;1.00
21590;DHT22;10957;50.968;6.828;2022-07-25T12:24:22;27.90;1.00
21590;DHT22;10957;50.968;6.828;2022-07-25T12:29:23;28.60;1.00
21590;DHT22;10957;50.968;6.828;2022-07-25T12:34:23;28.50;1.00
21590;DHT22;10957;50.968;6.828;2022-07-25T12:39:24;28.10;1.00
21590;DHT22;10957;50.968;6.828;2022-07-25T12:44:25;27.80;1.00
21590;DHT22;10957;50.968;6.828;2022-07-25T12:49:26;28.00;1.00
21590;DHT22;10957;50.968;6.828;2022-07-25T12:54:28;28.30;1.00
21590;DHT22;10957;50.968;6.828;2022-07-25T12:59:29;27.90;1.00
21590;DHT22;10957;50.968;6.828;2022-07-25T13:04:30;28.20;1.00
21590;DHT22;10957;50.968;6.828;2022-07-25T13:09:31;28.60;1.00
21590;DHT22;10957;50.968;6.828;2022-07-25T13:14:33;28.40;1.00
21590;DHT22;10957;50.968;6.828;2022-07-25T13:19:34;28.50;1.00
21590;DHT22;10957;50.968;6.828;2022-07-25T13:24:35;28.10;1.00
21590;DHT22;10957;50.968;6.828;2022-07-25T13:29:35;28.30;1.00
21590;DHT22;10957;50.968;6.828;2022-07-25T13:34:36;28.10;1.00
21590;DHT22;10957;50.968;6.828;2022-07-25T13:39:37;28.40;1.00
21590;DHT22;10957;50.968;6.828;2022-07-25T13:44:39;28.20;1.00
21590;DHT22;10957;50.968;6.828;2022-07-25T13:49:40;28.20;1.00
21590;DHT22;10957;50.968;6.828;2022-07-25T13:54:40;27.90;1.00
21590;DHT22;10957;50.968;6.828;2022-07-25T13:59:41;28.30;1.00
21590;DHT22;10957;50.968;6.828;2022-07-25T14:04:42;27.60;1.00
21590;DHT22;10957;50.968;6.828;2022-07-25T14:09:43;27.20;1.00
21590;DHT22;10957;50.968;6.828;2022-07-25T14:14:44;27.40;1.00
21590;DHT22;10957;50.968;6.828;2022-07-25T14:19:45;28.00;1.00
21590;DHT22;10957;50.968;6.828;2022-07-25T14:24:45;27.80;1.00
21590;DHT22;10957;50.968;6.828;2022-07-25T14:29:46;27.10;1.00
21590;DHT22;10957;50.968;6.828;2022-07-25T14:34:47;26.90;1.00
21590;DHT22;10957;50.968;6.828;2022-07-25T14:39:48;26.80;1.00
21590;DHT22;10957;50.968;6.828;2022-07-25T14:44:49;26.80;1.00
21590;DHT22;10957;50.968;6.828;2022-07-25T14:49:50;26.60;1.00
21590;DHT22;10957;50.968;6.828;2022-07-25T14:54:51;26.40;1.00
21590;DHT22;10957;50.968;6.828;2022-07-25T14:59:52;26.30;1.00
21590;DHT22;10957;50.968;6.828;2022-07-25T15:04:52;26.10;1.00
21590;DHT22;10957;50.968;6.828;2022-07-25T15:09:53;25.70;1.00
21590;DHT22;10957;50.968;6.828;2022-07-25T15:14:54;25.30;1.00
21590;DHT22;10957;50.968;6.828;2022-07-25T15:19:55;25.20;1.00
21590;DHT22;10957;50.968;6.828;2022-07-25T15:24:56;24.90;1.00
21590;DHT22;10957;50.968;6.828;2022-07-25T15:29:57;25.00;1.00
21590;DHT22;10957;50.968;6.828;2022-07-25T15:34:58;25.10;1.00
21590;DHT22;10957;50.968;6.828;2022-07-25T15:39:58;25.10;1.00
21590;DHT22;10957;50.968;6.828;2022-07-25T15:45:00;24.60;1.00
21590;DHT22;10957;50.968;6.828;2022-07-25T15:50:02;24.20;1.00
21590;DHT22;10957;50.968;6.828;2022-07-25T15:55:03;24.10;1.00
21590;DHT22;10957;50.968;6.828;2022-07-25T16:06:52;24.40;1.00
21590;DHT22;10957;50.968;6.828;2022-07-25T16:11:52;24.70;1.00
21590;DHT22;10957;50.968;6.828;2022-07-25T16:16:53;25.00;1.00
21590;DHT22;10957;50.968;6.828;2022-07-25T16:21:54;25.20;1.00
21590;DHT22;10957;50.968;6.828;2022-07-25T16:26:56;25.80;1.00
21590;DHT22;10957;50.968;6.828;2022-07-25T16:31:57;25.90;1.00
21590;DHT22;10957;50.968;6.828;2022-07-25T16:36:59;25.30;1.00
21590;DHT22;10957;50.968;6.828;2022-07-25T16:42:00;25.50;1.00
21590;DHT22;10957;50.968;6.828;2022-07-25T16:47:00;25.50;1.00
21590;DHT22;10957;50.968;6.828;2022-07-25T16:52:01;25.30;1.00
21590;DHT22;10957;50.968;6.828;2022-07-25T16:57:03;24.80;1.00
21590;DHT22;10957;50.968;6.828;2022-07-25T17:02:04;24.50;1.00
21590;DHT22;10957;50.968;6.828;2022-07-25T17:07:05;24.30;1.00
21590;DHT22;10957;50.968;6.828;2022-07-25T17:12:06;24.20;1.00
21590;DHT22;10957;50.968;6.828;2022-07-25T17:17:07;24.10;1.00
21590;DHT22;10957;50.968;6.828;2022-07-25T17:22:08;24.10;1.00
21590;DHT22;10957;50.968;6.828;2022-07-25T17:27:09;24.10;1.00
21590;DHT22;10957;50.968;6.828;2022-07-25T17:32:10;24.20;1.00
21590;DHT22;10957;50.968;6.828;2022-07-25T17:37:10;24.10;1.00
21590;DHT22;10957;50.968;6.828;2022-07-25T17:42:11;24.10;1.00
21590;DHT22;10957;50.968;6.828;2022-07-25T17:47:12;24.00;1.00
21590;DHT22;10957;50.968;6.828;2022-07-25T17:52:12;24.00;1.00
21590;DHT22;10957;50.968;6.828;2022-07-25T17:57:15;24.10;1.00
21590;DHT22;10957;50.968;6.828;2022-07-25T18:02:16;24.40;1.00
21590;DHT22;10957;50.968;6.828;2022-07-25T18:07:18;24.60;1.00
21590;DHT22;10957;50.968;6.828;2022-07-25T18:12:18;24.40;1.00
21590;DHT22;10957;50.968;6.828;2022-07-25T18:17:20;24.00;1.00
21590;DHT22;10957;50.968;6.828;2022-07-25T18:22:21;23.90;1.00
21590;DHT22;10957;50.968;6.828;2022-07-25T18:27:22;24.00;1.00
21590;DHT22;10957;50.968;6.828;2022-07-25T18:32:22;24.10;1.00
21590;DHT22;10957;50.968;6.828;2022-07-25T18:37:23;24.00;1.00
21590;DHT22;10957;50.968;6.828;2022-07-25T18:42:24;23.80;1.00
21590;DHT22;10957;50.968;6.828;2022-07-25T18:47:25;23.60;1.00
21590;DHT22;10957;50.968;6.828;2022-07-25T18:52:26;23.40;1.00
21590;DHT22;10957;50.968;6.828;2022-07-25T18:57:29;23.30;1.00
21590;DHT22;10957;50.968;6.828;2022-07-25T19:02:30;23.00;1.00
21590;DHT22;10957;50.968;6.828;2022-07-25T19:07:32;22.80;1.00
21590;DHT22;10957;50.968;6.828;2022-07-25T19:12:33;22.70;1.00
21590;DHT22;10957;50.968;6.828;2022-07-25T19:17:35;22.50;1.00
21590;DHT22;10957;50.968;6.828;2022-07-25T19:22:37;22.40;1.00
21590;DHT22;10957;50.968;6.828;2022-07-25T19:27:38;22.30;1.00
21590;DHT22;10957;50.968;6.828;2022-07-25T19:32:39;22.10;1.00
21590;DHT22;10957;50.968;6.828;2022-07-25T19:37:40;21.80;1.00
21590;DHT22;10957;50.968;6.828;2022-07-25T19:42:40;21.40;1.00
21590;DHT22;10957;50.968;6.828;2022-07-25T19:47:41;21.40;1.00
21590;DHT22;10957;50.968;6.828;2022-07-25T19:52:43;21.10;1.00
21590;DHT22;10957;50.968;6.828;2022-07-25T19:57:43;20.90;1.00
21590;DHT22;10957;50.968;6.828;2022-07-25T20:02:44;20.60;1.00
21590;DHT22;10957;50.968;6.828;2022-07-25T20:07:45;20.50;1.00
21590;DHT22;10957;50.968;6.828;2022-07-25T20:12:46;20.40;1.00
21590;DHT22;10957;50.968;6.828;2022-07-25T20:17:47;20.60;1.00
21590;DHT22;10957;50.968;6.828;2022-07-25T20:22:48;20.60;1.00
21590;DHT22;10957;50.968;6.828;2022-07-25T20:27:50;20.50;1.00
21590;DHT22;10957;50.968;6.828;2022-07-25T20:32:51;20.30;1.00
21590;DHT22;10957;50.968;6.828;2022-07-25T20:37:51;20.30;1.00
21590;DHT22;10957;50.968;6.828;2022-07-25T20:42:52;20.20;1.00
21590;DHT22;10957;50.968;6.828;2022-07-25T20:47:53;19.90;1.00
21590;DHT22;10957;50.968;6.828;2022-07-25T20:52:53;19.80;1.00
21590;DHT22;10957;50.968;6.828;2022-07-25T20:57:54;19.60;1.00
21590;DHT22;10957;50.968;6.828;2022-07-25T21:02:56;19.40;1.00
21590;DHT22;10957;50.968;6.828;2022-07-25T21:07:57;19.30;1.00
21590;DHT22;10957;50.968;6.828;2022-07-25T21:12:58;19.20;1.00
21590;DHT22;10957;50.968;6.828;2022-07-25T21:17:59;19.20;1.00
21590;DHT22;10957;50.968;6.828;2022-07-25T21:23:00;19.20;1.00
21590;DHT22;10957;50.968;6.828;2022-07-25T21:28:01;19.30;1.00
21590;DHT22;10957;50.968;6.828;2022-07-25T21:33:03;19.30;1.00
21590;DHT22;10957;50.968;6.828;2022-07-25T21:38:04;19.10;2.30
21590;DHT22;10957;50.968;6.828;2022-07-25T21:43:05;19.20;2.30
21590;DHT22;10957;50.968;6.828;2022-07-25T21:48:06;19.40;1.00
21590;DHT22;10957;50.968;6.828;2022-07-25T21:53:09;19.80;1.00
21590;DHT22;10957;50.968;6.828;2022-07-25T21:58:10;20.00;1.00
21590;DHT22;10957;50.968;6.828;2022-07-25T22:03:11;20.20;1.00
21590;DHT22;10957;50.968;6.828;2022-07-25T22:08:11;20.10;1.00
21590;DHT22;10957;50.968;6.828;2022-07-25T22:13:12;20.10;1.00
21590;DHT22;10957;50.968;6.828;2022-07-25T22:18:13;20.10;1.00
21590;DHT22;10957;50.968;6.828;2022-07-25T22:23:14;20.20;1.00
21590;DHT22;10957;50.968;6.828;2022-07-25T22:28:15;20.30;1.00
21590;DHT22;10957;50.968;6.828;2022-07-25T22:33:15;20.20;1.00
21590;DHT22;10957;50.968;6.828;2022-07-25T22:38:16;20.20;1.00
21590;DHT22;10957;50.968;6.828;2022-07-25T22:43:17;20.20;1.00
21590;DHT22;10957;50.968;6.828;2022-07-25T22:48:18;20.10;1.00
21590;DHT22;10957;50.968;6.828;2022-07-25T22:53:19;19.90;1.00
21590;DHT22;10957;50.968;6.828;2022-07-25T22:58:20;19.70;1.00
21590;DHT22;10957;50.968;6.828;2022-07-25T23:03:20;19.60;1.00
21590;DHT22;10957;50.968;6.828;2022-07-25T23:08:21;19.40;2.10
21590;DHT22;10957;50.968;6.828;2022-07-25T23:13:22;19.30;3.80
21590;DHT22;10957;50.968;6.828;2022-07-25T23:18:23;18.90;6.00
21590;DHT22;10957;50.968;6.828;2022-07-25T23:23:24;18.80;7.50
21590;DHT22;10957;50.968;6.828;2022-07-25T23:28:25;18.90;7.80
21590;DHT22;10957;50.968;6.828;2022-07-25T23:33:26;18.80;9.20
21590;DHT22;10957;50.968;6.828;2022-07-25T23:38:26;18.90;9.50
21590;DHT22;10957;50.968;6.828;2022-07-25T23:43:27;18.90;9.50
21590;DHT22;10957;50.968;6.828;2022-07-25T23:48:28;18.90;9.20
21590;DHT22;10957;50.968;6.828;2022-07-25T23:53:28;18.90;9.50
21590;DHT22;10957;50.968;6.828;2022-07-25T23:58:29;18.90;10.30
